Time;durP1;ratioP1;P1;durP2;ratioP2;P2;SDS_P1;SDS_P2;PMS_P1;PMS_P2;Temp;Humidity;BMP_temperature;BMP_pressure;BME280_temperature;BME280_humidity;BME280_pressure;Samples;Min_cycle;Max_cycle;Signal;HPM_P1;HPM_P2
2023/05/03 00:00:00;;;;;;;9.13;6.90;;;10.70;83.60;;;;;;5067213;28;20461;-74
2023/05/03 00:02:46;;;;;;;10.47;6.90;;;10.70;84.00;;;;;;5066322;28;20420;-74
2023/05/03 00:05:31;;;;;;;10.77;6.03;;;10.80;83.60;;;;;;5075515;28;20441;-75
2023/05/03 00:08:16;;;;;;;9.77;6.33;;;10.70;84.20;;;;;;5076416;28;21267;-74
2023/05/03 00:11:02;;;;;;;9.93;6.23;;;10.70;83.70;;;;;;5069328;28;20544;-73
2023/05/03 00:13:47;;;;;;;11.10;6.73;;;10.60;84.50;;;;;;5070874;28;20403;-74
2023/05/03 00:16:34;;;;;;;11.90;6.57;;;10.60;84.30;;;;;;5072429;28;20983;-73
2023/05/03 00:19:20;;;;;;;9.77;6.53;;;10.60;83.70;;;;;;5068616;28;20977;-70
2023/05/03 00:22:06;;;;;;;12.23;6.10;;;10.70;83.90;;;;;;5060727;28;20469;-70
2023/05/03 00:24:51;;;;;;;14.13;6.50;;;10.70;83.60;;;;;;5061884;28;20409;-74
2023/05/03 00:27:37;;;;;;;14.93;6.30;;;10.60;83.90;;;;;;5075914;28;20491;-74
2023/05/03 00:30:24;;;;;;;9.50;6.10;;;10.50;84.90;;;;;;5066199;28;20417;-73
2023/05/03 00:33:11;;;;;;;12.30;6.77;;;10.50;85.10;;;;;;5064547;28;21005;-73
2023/05/03 00:35:56;;;;;;;13.73;7.27;;;10.40;85.10;;;;;;5067752;28;20440;-74
2023/05/03 00:38:42;;;;;;;9.20;6.07;;;10.40;85.00;;;;;;5067007;28;20511;-73
2023/05/03 00:41:28;;;;;;;13.80;7.90;;;10.20;85.30;;;;;;5068455;28;20425;-72
2023/05/03 00:44:15;;;;;;;12.47;6.70;;;10.20;85.10;;;;;;5066821;28;20925;-73
2023/05/03 00:47:01;;;;;;;10.50;7.33;;;10.20;85.80;;;;;;5067375;28;20490;-73
2023/05/03 00:49:47;;;;;;;11.30;6.60;;;10.20;86.20;;;;;;5063512;28;20435;-73
2023/05/03 00:52:34;;;;;;;13.00;6.70;;;10.20;85.30;;;;;;5067903;28;20435;-74
2023/05/03 00:55:19;;;;;;;10.07;6.63;;;10.20;85.50;;;;;;5059331;28;20822;-74
2023/05/03 00:58:05;;;;;;;9.83;6.07;;;10.20;85.40;;;;;;5067542;28;20990;-73
2023/05/03 01:00:50;;;;;;;11.77;6.70;;;10.20;84.90;;;;;;5072922;28;20898;-72
2023/05/03 01:03:40;;;;;;;9.03;6.60;;;10.10;84.80;;;;;;5071836;28;20446;-74
2023/05/03 01:06:36;;;;;;;12.83;7.53;;;10.10;85.50;;;;;;5067828;28;20454;-74
2023/05/03 01:09:30;;;;;;;10.30;6.50;;;10.10;85.20;;;;;;5059434;28;21049;-74
2023/05/03 01:12:25;;;;;;;10.70;7.00;;;10.10;85.10;;;;;;5063755;28;20445;-74
2023/05/03 01:15:17;;;;;;;9.50;6.63;;;10.10;84.80;;;;;;5065687;28;20933;-74
2023/05/03 01:18:07;;;;;;;13.27;7.50;;;10.20;84.90;;;;;;5067917;28;20483;-71
2023/05/03 01:20:53;;;;;;;15.87;6.30;;;10.20;84.00;;;;;;5063261;28;20568;-74
2023/05/03 01:23:46;;;;;;;13.50;6.50;;;10.00;84.30;;;;;;5061812;28;20418;-74
2023/05/03 01:26:33;;;;;;;12.50;6.07;;;10.00;84.60;;;;;;5067466;28;20454;-74
2023/05/03 01:29:18;;;;;;;12.30;6.67;;;10.00;84.70;;;;;;5060770;28;20437;-75
2023/05/03 01:32:08;;;;;;;17.67;7.93;;;10.00;84.70;;;;;;5060675;28;20495;-73
2023/05/03 01:35:00;;;;;;;10.70;6.10;;;10.00;84.70;;;;;;5067311;28;20450;-74
2023/05/03 01:37:47;;;;;;;17.97;6.70;;;9.90;85.50;;;;;;5062704;28;20457;-73
2023/05/03 01:40:46;;;;;;;10.47;6.90;;;9.90;85.50;;;;;;5065302;28;20444;-74
2023/05/03 01:43:34;;;;;;;12.47;6.03;;;9.80;85.70;;;;;;5063000;28;21111;-75
2023/05/03 01:46:19;;;;;;;13.43;6.70;;;9.80;86.10;;;;;;5062169;28;21189;-75
2023/05/03 01:49:05;;;;;;;7.93;6.53;;;9.70;86.10;;;;;;5062420;28;20414;-74
2023/05/03 01:51:50;;;;;;;15.53;6.30;;;9.80;86.20;;;;;;5071651;28;20436;-73
2023/05/03 01:54:36;;;;;;;13.27;6.80;;;9.90;85.30;;;;;;5070313;28;20689;-75
2023/05/03 01:57:21;;;;;;;9.57;5.80;;;9.80;85.40;;;;;;5061597;28;20449;-75
2023/05/03 02:00:10;;;;;;;19.90;9.00;;;9.60;87.00;;;;;;5065291;28;20451;-74
2023/05/03 02:02:55;;;;;;;15.20;5.80;;;9.60;87.10;;;;;;5072096;28;20437;-73
2023/05/03 02:05:41;;;;;;;17.63;6.47;;;9.50;87.40;;;;;;5070717;28;20446;-73
2023/05/03 02:08:26;;;;;;;14.97;6.20;;;9.60;87.90;;;;;;5069631;28;20549;-74
2023/05/03 02:11:12;;;;;;;11.03;5.90;;;9.50;89.00;;;;;;5071853;28;20412;-74
2023/05/03 02:13:57;;;;;;;12.87;7.33;;;9.50;88.50;;;;;;5076204;28;20487;-74
2023/05/03 02:16:44;;;;;;;12.93;6.03;;;9.60;88.40;;;;;;5065247;28;20954;-73
2023/05/03 02:19:30;;;;;;;30.33;7.10;;;9.60;89.20;;;;;;5065576;28;20449;-74
2023/05/03 02:22:15;;;;;;;9.30;6.30;;;9.50;89.20;;;;;;5064204;28;20443;-73
2023/05/03 02:25:01;;;;;;;10.57;5.97;;;9.30;89.50;;;;;;5065127;28;20783;-74
2023/05/03 02:27:46;;;;;;;7.93;5.50;;;9.30;90.70;;;;;;5062805;28;20821;-74
2023/05/03 02:30:32;;;;;;;9.57;6.57;;;9.30;91.00;;;;;;5066437;28;20465;-74
2023/05/03 02:33:19;;;;;;;14.70;6.50;;;9.10;91.60;;;;;;5059008;28;20433;-73
2023/05/03 02:36:05;;;;;;;11.50;6.43;;;8.90;92.80;;;;;;5067827;28;20416;-75
2023/05/03 02:38:51;;;;;;;18.20;5.80;;;8.90;93.80;;;;;;5064444;28;20626;-74
2023/05/03 02:41:36;;;;;;;9.03;6.43;;;8.70;94.60;;;;;;5063195;28;20505;-72
2023/05/03 02:44:21;;;;;;;12.93;6.30;;;8.70;96.30;;;;;;5061632;28;20539;-74
2023/05/03 02:47:07;;;;;;;8.60;5.90;;;8.70;96.40;;;;;;5059924;28;20466;-74
2023/05/03 02:49:55;;;;;;;10.10;7.23;;;8.70;97.40;;;;;;5063147;28;20431;-74
2023/05/03 02:52:40;;;;;;;10.00;6.47;;;8.70;97.20;;;;;;5059587;28;21240;-75
2023/05/03 02:55:25;;;;;;;13.90;7.50;;;8.50;97.70;;;;;;5072337;28;20958;-75
2023/05/03 02:58:11;;;;;;;12.33;5.60;;;8.60;98.50;;;;;;5063933;28;20465;-74
2023/05/03 03:00:57;;;;;;;11.57;6.50;;;8.60;98.30;;;;;;5063379;28;20473;-74
2023/05/03 03:03:42;;;;;;;9.80;6.57;;;8.70;98.20;;;;;;5062639;28;20451;-74
2023/05/03 03:06:30;;;;;;;11.53;6.70;;;8.60;98.30;;;;;;5062230;28;20552;-74
2023/05/03 03:09:15;;;;;;;9.20;5.70;;;8.30;99.10;;;;;;5074448;23;20549;-92
2023/05/03 03:12:02;;;;;;;12.30;7.17;;;8.40;99.80;;;;;;5081797;28;20420;-92
2023/05/03 03:14:47;;;;;;;13.27;7.27;;;8.40;99.90;;;;;;5077052;28;20416;-92
2023/05/03 03:17:37;;;;;;;11.07;6.30;;;8.40;99.90;;;;;;5070712;28;20468;-92
2023/05/03 03:20:22;;;;;;;8.00;5.80;;;8.40;99.90;;;;;;5043683;28;20476;-92
2023/05/03 03:23:10;;;;;;;13.53;7.03;;;8.30;99.90;;;;;;5056296;28;20416;-92
2023/05/03 03:25:55;;;;;;;10.07;6.40;;;8.30;99.90;;;;;;5055833;28;20498;-92
2023/05/03 03:28:41;;;;;;;8.87;6.27;;;8.20;99.90;;;;;;5055515;28;20461;-92
2023/05/03 03:31:27;;;;;;;12.97;7.07;;;8.20;99.90;;;;;;5051776;28;20474;-92
2023/05/03 03:34:13;;;;;;;10.83;5.90;;;8.20;99.90;;;;;;5046865;28;20424;-92
2023/05/03 03:36:58;;;;;;;8.77;5.73;;;8.10;99.90;;;;;;5043391;28;20421;-92
2023/05/03 03:39:45;;;;;;;10.80;6.20;;;7.90;99.90;;;;;;5056766;28;20475;-92
2023/05/03 03:42:31;;;;;;;13.30;7.53;;;7.80;99.90;;;;;;5054076;28;20497;-92
2023/05/03 03:45:16;;;;;;;7.70;6.03;;;7.70;99.90;;;;;;5046309;28;20414;-92
2023/05/03 03:48:02;;;;;;;9.53;6.73;;;7.50;99.90;;;;;;5052200;28;20484;-92
2023/05/03 03:50:48;;;;;;;7.03;5.70;;;7.60;99.90;;;;;;5052147;28;20425;-92
2023/05/03 03:53:34;;;;;;;9.20;6.53;;;7.60;99.90;;;;;;5047338;28;20439;-92
2023/05/03 03:56:22;;;;;;;7.60;5.90;;;7.50;99.90;;;;;;5042726;28;20439;-91
2023/05/03 03:59:08;;;;;;;10.00;7.30;;;7.40;99.90;;;;;;5053546;28;20456;-92
2023/05/03 04:01:53;;;;;;;12.87;8.33;;;7.30;99.90;;;;;;5045361;28;20555;-92
2023/05/03 04:04:39;;;;;;;9.80;8.10;;;7.30;99.90;;;;;;5047012;28;20417;-92
2023/05/03 04:07:24;;;;;;;10.73;8.00;;;7.10;99.90;;;;;;5056254;28;20414;-92
2023/05/03 04:10:10;;;;;;;12.60;7.03;;;7.10;99.90;;;;;;5057701;28;20453;-92
2023/05/03 04:12:57;;;;;;;15.50;8.47;;;7.00;99.90;;;;;;5058144;28;20488;-92
2023/05/03 04:15:42;;;;;;;10.17;7.77;;;7.00;99.90;;;;;;5048772;28;20400;-92
2023/05/03 04:18:28;;;;;;;11.20;7.90;;;7.00;99.90;;;;;;5046378;28;20475;-92
2023/05/03 04:21:13;;;;;;;15.13;7.60;;;7.00;99.90;;;;;;5063543;28;20453;-92
2023/05/03 04:24:00;;;;;;;14.67;7.10;;;6.90;99.90;;;;;;5064987;28;20454;-92
2023/05/03 04:26:46;;;;;;;12.97;8.03;;;6.90;99.90;;;;;;5042026;28;20442;-92
2023/05/03 04:29:33;;;;;;;14.80;7.40;;;6.90;99.90;;;;;;5054163;28;20860;-91
2023/05/03 04:32:22;;;;;;;10.87;7.00;;;6.90;99.90;;;;;;5053239;28;20410;-92
2023/05/03 04:35:09;;;;;;;16.33;8.80;;;7.00;99.90;;;;;;5051917;28;20487;-92
2023/05/03 04:37:54;;;;;;;12.60;8.37;;;7.00;99.90;;;;;;5050380;28;20460;-92
2023/05/03 04:40:41;;;;;;;11.90;7.83;;;7.20;99.90;;;;;;5055836;28;20484;-92
2023/05/03 04:43:26;;;;;;;14.07;9.40;;;7.30;99.90;;;;;;5050074;28;20418;-92
2023/05/03 04:46:13;;;;;;;15.60;7.10;;;7.30;99.90;;;;;;5045747;28;20480;-92
2023/05/03 04:48:59;;;;;;;9.23;7.57;;;7.30;99.90;;;;;;5057447;28;20503;-92
2023/05/03 04:51:44;;;;;;;17.50;7.77;;;7.30;99.90;;;;;;5041936;28;20411;-92
2023/05/03 04:54:30;;;;;;;18.50;9.80;;;7.20;99.90;;;;;;5044634;28;20535;-91
2023/05/03 04:57:16;;;;;;;15.17;8.63;;;7.10;99.90;;;;;;5050187;28;20418;-92
2023/05/03 05:00:03;;;;;;;16.43;7.17;;;7.20;99.90;;;;;;5039109;28;20444;-92
2023/05/03 05:02:50;;;;;;;13.07;8.20;;;7.30;99.90;;;;;;5050846;28;20443;-92
2023/05/03 05:05:35;;;;;;;14.47;7.60;;;7.50;99.90;;;;;;5036289;28;20423;-91
2023/05/03 05:08:20;;;;;;;13.90;8.50;;;7.60;99.90;;;;;;5047706;28;20519;-92
2023/05/03 05:11:06;;;;;;;9.20;7.63;;;7.70;99.90;;;;;;5050988;28;20447;-92
2023/05/03 05:13:52;;;;;;;11.33;8.23;;;7.90;99.90;;;;;;5051473;28;20425;-91
2023/05/03 05:16:38;;;;;;;14.00;6.83;;;8.10;99.90;;;;;;5046208;28;20438;-92
2023/05/03 05:19:25;;;;;;;11.27;7.63;;;8.30;99.90;;;;;;5054289;28;20438;-92
2023/05/03 05:22:10;;;;;;;13.53;8.63;;;8.20;99.90;;;;;;5058173;28;20458;-92
2023/05/03 05:24:55;;;;;;;12.23;7.40;;;8.40;99.90;;;;;;5047381;28;20439;-92
2023/05/03 05:27:41;;;;;;;11.13;7.57;;;8.60;99.90;;;;;;5051917;28;20418;-92
2023/05/03 05:30:27;;;;;;;12.30;7.73;;;8.90;99.90;;;;;;5052663;28;20454;-93
2023/05/03 05:33:12;;;;;;;8.83;6.37;;;9.00;99.90;;;;;;5061125;28;20423;-91
2023/05/03 05:36:00;;;;;;;11.33;6.87;;;9.20;99.90;;;;;;5043622;28;20527;-93
2023/05/03 05:38:45;;;;;;;9.83;6.50;;;9.40;99.90;;;;;;5053808;28;20467;-92
2023/05/03 05:41:31;;;;;;;9.27;6.17;;;9.50;99.90;;;;;;5062793;28;20491;-92
2023/05/03 05:44:16;;;;;;;15.30;7.40;;;9.70;99.90;;;;;;5057637;28;20439;-91
2023/05/03 05:47:02;;;;;;;12.10;6.70;;;9.80;99.90;;;;;;5052185;28;20443;-92
2023/05/03 05:49:48;;;;;;;13.90;7.00;;;9.90;99.90;;;;;;5051471;28;20475;-92
2023/05/03 05:52:35;;;;;;;8.37;6.43;;;9.90;99.90;;;;;;5060726;28;20564;-92
2023/05/03 05:55:21;;;;;;;9.40;6.37;;;10.00;99.90;;;;;;5055743;28;20469;-92
2023/05/03 05:58:06;;;;;;;10.00;6.50;;;10.10;99.90;;;;;;5051504;28;20464;-92
2023/05/03 06:00:54;;;;;;;11.57;6.57;;;10.20;99.90;;;;;;5051578;28;20439;-92
2023/05/03 06:03:40;;;;;;;14.00;6.90;;;10.30;99.90;;;;;;5054546;28;20928;-92
2023/05/03 06:06:26;;;;;;;10.50;6.70;;;10.40;99.90;;;;;;5057306;28;20683;-92
2023/05/03 06:09:13;;;;;;;14.77;6.10;;;10.50;99.90;;;;;;5062102;28;20723;-93
2023/05/03 06:12:00;;;;;;;10.00;6.20;;;10.70;99.90;;;;;;5053271;28;20423;-92
2023/05/03 06:14:45;;;;;;;13.80;6.97;;;10.70;99.90;;;;;;5040362;28;20516;-92
2023/05/03 06:17:31;;;;;;;10.80;7.00;;;10.90;99.80;;;;;;5053480;28;20464;-92
2023/05/03 06:20:17;;;;;;;10.27;5.83;;;10.90;98.00;;;;;;5057697;28;20452;-92
2023/05/03 06:23:02;;;;;;;10.27;5.43;;;10.90;98.00;;;;;;5054532;28;20451;-92
2023/05/03 06:25:50;;;;;;;9.67;6.93;;;10.90;97.70;;;;;;5049848;28;20516;-92
2023/05/03 06:28:36;;;;;;;11.13;6.10;;;11.00;96.60;;;;;;5049245;28;20460;-92
2023/05/03 06:31:21;;;;;;;11.23;5.67;;;11.10;96.60;;;;;;5055295;28;20410;-92
2023/05/03 06:34:07;;;;;;;11.77;6.40;;;11.20;95.50;;;;;;5048996;28;20466;-92
2023/05/03 06:36:53;;;;;;;17.60;6.83;;;11.20;96.40;;;;;;5050820;28;20495;-92
2023/05/03 06:39:38;;;;;;;11.03;6.70;;;11.30;95.70;;;;;;5061418;28;20489;-92
2023/05/03 06:42:26;;;;;;;16.70;6.40;;;11.40;95.50;;;;;;5050684;28;20498;-92
2023/05/03 06:45:12;;;;;;;14.67;6.20;;;11.40;95.30;;;;;;5045349;28;20469;-92
2023/05/03 06:47:57;;;;;;;13.33;6.30;;;11.60;94.90;;;;;;5056925;28;20551;-92
2023/05/03 06:50:43;;;;;;;8.73;6.03;;;11.60;92.90;;;;;;5046113;28;20416;-92
2023/05/03 06:53:29;;;;;;;13.73;6.70;;;11.60;92.80;;;;;;5049839;28;21260;-92
2023/05/03 06:56:15;;;;;;;13.80;6.00;;;11.70;93.20;;;;;;5052780;28;20449;-92
2023/05/03 06:59:02;;;;;;;11.73;6.60;;;11.80;93.20;;;;;;5052678;28;20480;-92
2023/05/03 07:01:49;;;;;;;11.13;6.13;;;11.90;92.30;;;;;;5049318;28;20459;-92
2023/05/03 07:04:36;;;;;;;12.30;6.43;;;12.00;91.40;;;;;;5036311;28;20492;-93
2023/05/03 07:07:21;;;;;;;16.43;6.00;;;12.10;91.50;;;;;;5054257;28;20457;-93
2023/05/03 07:10:08;;;;;;;11.67;7.10;;;12.20;91.80;;;;;;5051640;28;20437;-92
2023/05/03 07:12:53;;;;;;;13.73;6.43;;;12.30;91.50;;;;;;5053742;28;20445;-91
2023/05/03 07:15:40;;;;;;;12.77;7.23;;;12.30;90.80;;;;;;5055109;28;20431;-92
2023/05/03 07:18:26;;;;;;;10.17;6.20;;;12.30;90.40;;;;;;5040831;28;20490;-94
2023/05/03 07:21:12;;;;;;;10.67;5.90;;;12.40;90.90;;;;;;5062851;28;20967;-92
2023/05/03 07:23:57;;;;;;;13.37;6.27;;;12.50;90.10;;;;;;5038296;28;20460;-92
2023/05/03 07:26:43;;;;;;;11.10;5.80;;;12.50;89.50;;;;;;5045683;28;20437;-92
2023/05/03 07:29:28;;;;;;;11.00;5.80;;;12.70;89.60;;;;;;5039548;28;20514;-92
2023/05/03 07:32:15;;;;;;;10.00;5.83;;;12.80;86.90;;;;;;5047010;28;20970;-91
2023/05/03 07:35:01;;;;;;;10.60;5.43;;;12.80;84.30;;;;;;5045968;28;20449;-92
2023/05/03 07:37:46;;;;;;;12.83;6.27;;;13.00;83.80;;;;;;5044256;28;20456;-93
2023/05/03 07:40:32;;;;;;;9.10;5.87;;;13.10;83.30;;;;;;5042309;28;20452;-92
2023/05/03 07:43:19;;;;;;;11.20;4.93;;;13.10;82.40;;;;;;5044626;28;20825;-92
2023/05/03 07:46:04;;;;;;;8.00;5.30;;;13.10;80.70;;;;;;5044407;28;20847;-92
2023/05/03 07:48:51;;;;;;;13.97;5.77;;;13.20;82.50;;;;;;5040385;28;20524;-92
2023/05/03 07:51:37;;;;;;;10.20;6.20;;;13.30;83.00;;;;;;5045738;28;20435;-92
2023/05/03 07:54:23;;;;;;;11.30;5.80;;;13.30;81.60;;;;;;5046818;28;20988;-92
2023/05/03 07:57:09;;;;;;;11.63;5.90;;;13.40;81.80;;;;;;5048003;28;20441;-94
2023/05/03 07:59:55;;;;;;;10.23;5.80;;;13.50;78.60;;;;;;5045531;28;20967;-92
2023/05/03 08:02:41;;;;;;;16.37;5.50;;;13.50;78.60;;;;;;5043323;28;20558;-93
2023/05/03 08:05:29;;;;;;;7.17;5.73;;;13.70;79.50;;;;;;5046206;28;20455;-93
2023/05/03 08:08:14;;;;;;;12.07;6.77;;;13.70;78.80;;;;;;5050288;28;20508;-93
2023/05/03 08:11:00;;;;;;;20.53;6.03;;;13.80;78.90;;;;;;5045197;28;20420;-92
2023/05/03 08:13:46;;;;;;;9.90;6.33;;;13.90;78.60;;;;;;5043872;28;20541;-92
2023/05/03 08:16:31;;;;;;;7.70;5.37;;;13.90;79.30;;;;;;5048271;28;20425;-92
2023/05/03 08:19:17;;;;;;;9.23;5.47;;;14.00;74.10;;;;;;5042438;28;21034;-92
2023/05/03 08:22:04;;;;;;;8.87;4.90;;;14.00;77.50;;;;;;5030509;28;20524;-92
2023/05/03 08:24:51;;;;;;;6.73;5.07;;;14.20;76.50;;;;;;5034656;28;20612;-92
2023/05/03 08:27:37;;;;;;;9.60;6.20;;;14.30;77.00;;;;;;5023381;28;20643;-92
2023/05/03 08:30:22;;;;;;;9.57;5.60;;;14.40;74.80;;;;;;5030426;28;20468;-93
2023/05/03 08:33:08;;;;;;;7.73;4.60;;;14.40;74.70;;;;;;5024055;28;20462;-92
2023/05/03 08:35:54;;;;;;;9.00;5.70;;;14.50;74.00;;;;;;5039761;28;20572;-92
2023/05/03 08:38:41;;;;;;;11.40;6.00;;;14.60;75.50;;;;;;5039748;28;20544;-91
2023/05/03 08:41:29;;;;;;;7.23;5.37;;;14.70;74.00;;;;;;5033331;28;20471;-92
2023/05/03 08:44:21;;;;;;;7.50;5.47;;;14.60;72.30;;;;;;5038056;28;20414;-93
2023/05/03 08:47:07;;;;;;;9.20;5.60;;;14.70;76.00;;;;;;5044800;28;20447;-92
2023/05/03 08:49:53;;;;;;;10.33;5.40;;;14.80;71.70;;;;;;5027447;28;20445;-93
2023/05/03 08:52:40;;;;;;;8.80;5.37;;;14.90;73.20;;;;;;5017117;28;20855;-93
2023/05/03 08:55:27;;;;;;;8.50;5.20;;;15.00;72.10;;;;;;5048950;28;21004;-93
2023/05/03 08:58:13;;;;;;;10.10;5.40;;;15.10;71.70;;;;;;5033269;28;20609;-93
2023/05/03 09:01:04;;;;;;;7.77;5.67;;;15.10;71.80;;;;;;5030486;28;20513;-93
2023/05/03 09:03:51;;;;;;;6.97;4.70;;;15.30;70.80;;;;;;5027979;28;20480;-90
2023/05/03 09:06:37;;;;;;;9.97;6.10;;;15.40;70.90;;;;;;5026042;28;20514;-92
2023/05/03 09:09:31;;;;;;;8.50;4.73;;;15.50;69.70;;;;;;5041748;28;21021;-91
2023/05/03 09:12:35;;;;;;;8.90;5.80;;;15.50;69.30;;;;;;5035658;28;20483;-92
2023/05/03 09:15:21;;;;;;;9.10;6.70;;;15.50;70.90;;;;;;5032130;28;20439;-92
2023/05/03 09:18:14;;;;;;;6.77;5.37;;;15.50;67.20;;;;;;5035650;28;20476;-95
2023/05/03 09:21:00;;;;;;;10.90;5.47;;;15.50;65.50;;;;;;5032999;28;20419;-91
2023/05/03 09:23:48;;;;;;;12.13;5.33;;;15.70;63.30;;;;;;5026390;28;20561;-93
2023/05/03 09:26:35;;;;;;;9.00;4.70;;;15.90;66.50;;;;;;5038565;28;20421;-93
2023/05/03 09:29:30;;;;;;;8.80;5.03;;;15.90;64.10;;;;;;5035564;28;20460;-92
2023/05/03 09:32:15;;;;;;;7.30;4.30;;;16.00;64.50;;;;;;5030282;28;20443;-93
2023/05/03 09:35:10;;;;;;;9.63;4.87;;;16.20;66.00;;;;;;5040659;28;20974;-93
2023/05/03 09:37:55;;;;;;;7.37;4.63;;;16.40;65.00;;;;;;5041644;28;20878;-93
2023/05/03 09:40:46;;;;;;;7.70;4.40;;;16.40;62.00;;;;;;5029270;28;20465;-92
2023/05/03 09:43:32;;;;;;;6.87;5.00;;;16.40;59.30;;;;;;5033315;28;20477;-92
2023/05/03 09:46:20;;;;;;;8.70;4.40;;;16.40;57.30;;;;;;5036800;28;20463;-93
2023/05/03 09:49:05;;;;;;;10.90;5.23;;;16.50;61.50;;;;;;5030755;28;20555;-92
2023/05/03 09:51:51;;;;;;;8.30;4.70;;;16.50;58.10;;;;;;5039269;28;20426;-92
2023/05/03 09:54:38;;;;;;;8.40;5.17;;;16.40;58.60;;;;;;5033490;28;20452;-92
2023/05/03 09:57:23;;;;;;;5.03;4.23;;;16.50;57.80;;;;;;5046628;28;20452;-92
2023/05/03 10:00:12;;;;;;;7.03;3.50;;;16.50;52.10;;;;;;5029968;28;20426;-91
2023/05/03 10:03:02;;;;;;;9.47;5.13;;;16.50;55.30;;;;;;5044034;28;20470;-92
2023/05/03 10:05:50;;;;;;;10.10;4.27;;;16.60;58.40;;;;;;5029717;28;20820;-94
2023/05/03 10:08:40;;;;;;;8.90;5.20;;;16.70;62.20;;;;;;5034446;28;20533;-92
2023/05/03 10:11:27;;;;;;;14.87;5.30;;;16.80;53.20;;;;;;5043932;28;21000;-92
2023/05/03 10:14:13;;;;;;;16.63;5.10;;;16.90;55.90;;;;;;5021972;28;20487;-92
2023/05/03 10:17:02;;;;;;;8.03;4.00;;;17.10;54.00;;;;;;5030355;28;20945;-92
2023/05/03 10:19:52;;;;;;;10.00;4.70;;;17.20;55.90;;;;;;5028020;28;20841;-93
2023/05/03 10:23:10;;;;;;;8.70;4.53;;;17.30;54.90;;;;;;5023607;28;20809;-92
2023/05/03 10:26:16;;;;;;;6.57;4.00;;;17.40;52.00;;;;;;5033300;28;20446;-91
2023/05/03 10:29:01;;;;;;;9.90;5.47;;;17.40;52.80;;;;;;5033816;28;20450;-91
2023/05/03 10:31:47;;;;;;;8.40;4.70;;;17.40;50.50;;;;;;5041094;28;20430;-92
2023/05/03 10:34:33;;;;;;;9.07;4.50;;;17.60;49.40;;;;;;5037789;28;20548;-92
2023/05/03 10:37:26;;;;;;;8.20;5.00;;;17.50;42.70;;;;;;5042788;28;20528;-92
2023/05/03 10:40:14;;;;;;;6.60;4.30;;;17.40;50.50;;;;;;5042298;28;20478;-92
2023/05/03 10:43:00;;;;;;;9.17;5.67;;;17.60;47.50;;;;;;5044054;28;20542;-92
2023/05/03 10:45:45;;;;;;;11.20;4.97;;;17.70;47.60;;;;;;5033291;28;21070;-92
2023/05/03 10:48:31;;;;;;;9.80;4.57;;;17.80;48.00;;;;;;5040551;28;21043;-92
2023/05/03 10:51:35;;;;;;;7.23;4.30;;;17.80;44.00;;;;;;5040960;28;20428;-91
2023/05/03 10:54:22;;;;;;;8.47;5.17;;;18.00;49.10;;;;;;5046688;28;20430;-92
2023/05/03 10:57:08;;;;;;;6.93;5.13;;;18.10;48.90;;;;;;5024219;28;20444;-91
2023/05/03 10:59:58;;;;;;;6.33;4.20;;;18.20;48.50;;;;;;5030305;28;20437;-91
2023/05/03 11:03:03;;;;;;;9.43;4.20;;;18.30;46.40;;;;;;5035002;28;20537;-91
2023/05/03 11:05:48;;;;;;;18.83;4.17;;;18.40;43.60;;;;;;5030427;28;20415;-91
2023/05/03 11:08:36;;;;;;;13.80;3.97;;;18.60;43.70;;;;;;5037419;28;20493;-92
2023/05/03 11:11:23;;;;;;;6.50;3.97;;;18.60;43.30;;;;;;5033924;28;20456;-91
2023/05/03 11:14:09;;;;;;;5.40;3.50;;;18.50;41.10;;;;;;5038981;28;20469;-91
2023/05/03 11:16:56;;;;;;;4.57;3.33;;;18.50;45.40;;;;;;5043325;28;20934;-92
2023/05/03 11:19:43;;;;;;;11.13;4.07;;;18.50;38.90;;;;;;5029524;28;20452;-92
2023/05/03 11:22:29;;;;;;;7.90;4.30;;;18.50;41.70;;;;;;5039339;28;20431;-92
2023/05/03 11:25:15;;;;;;;6.40;4.50;;;18.60;44.50;;;;;;5027544;28;20459;-93
2023/05/03 11:28:02;;;;;;;4.43;3.00;;;18.70;38.80;;;;;;5040777;28;20581;-90
2023/05/03 11:30:50;;;;;;;5.30;4.00;;;18.80;43.40;;;;;;5032046;28;20422;-90
2023/05/03 11:33:37;;;;;;;9.73;3.97;;;18.90;37.60;;;;;;5026866;28;20544;-91
2023/05/03 11:36:22;;;;;;;5.97;4.30;;;19.00;40.00;;;;;;5039655;28;20438;-91
2023/05/03 11:39:08;;;;;;;8.50;3.90;;;19.10;36.30;;;;;;5026073;28;20573;-91
2023/05/03 11:42:03;;;;;;;7.97;3.53;;;19.10;36.10;;;;;;5037873;28;20432;-91
2023/05/03 11:44:50;;;;;;;8.27;3.60;;;19.30;37.50;;;;;;5028111;28;20438;-91
2023/05/03 11:47:37;;;;;;;6.80;3.40;;;19.30;33.40;;;;;;5021290;28;20925;-91
2023/05/03 11:50:45;;;;;;;6.07;3.10;;;19.30;34.00;;;;;;5037364;28;20537;-91
2023/05/03 11:53:33;;;;;;;6.13;2.87;;;19.30;30.70;;;;;;5030210;28;20426;-91
2023/05/03 11:56:19;;;;;;;6.53;3.30;;;19.30;30.00;;;;;;5035373;28;20428;-90
2023/05/03 11:59:05;;;;;;;6.77;3.77;;;19.40;33.40;;;;;;5030983;28;20769;-90
2023/05/03 12:01:54;;;;;;;5.23;3.30;;;19.50;29.00;;;;;;5028974;28;20428;-90
2023/05/03 12:04:41;;;;;;;7.47;2.97;;;19.60;33.90;;;;;;5046429;28;20444;-90
2023/05/03 12:07:26;;;;;;;5.50;3.87;;;19.80;33.20;;;;;;5039837;28;21005;-90
2023/05/03 12:10:17;;;;;;;6.10;3.43;;;20.00;30.50;;;;;;5027583;28;21278;-89
2023/05/03 12:13:02;;;;;;;10.10;3.50;;;19.90;28.20;;;;;;5039895;28;20582;-89
2023/05/03 12:15:57;;;;;;;4.17;2.77;;;20.00;30.70;;;;;;5033080;28;20436;-88
2023/05/03 12:18:49;;;;;;;5.80;3.63;;;20.20;30.00;;;;;;5043546;28;20877;-89
2023/05/03 12:21:46;;;;;;;6.43;3.43;;;20.20;29.70;;;;;;5033844;28;20848;-88
2023/05/03 12:24:35;;;;;;;4.60;3.20;;;20.40;28.00;;;;;;5034379;28;20481;-90
2023/05/03 12:27:21;;;;;;;8.17;3.27;;;20.60;28.00;;;;;;5033025;28;20447;-89
2023/05/03 12:30:09;;;;;;;4.90;2.73;;;20.70;27.00;;;;;;5034891;28;20607;-90
2023/05/03 12:32:55;;;;;;;15.50;3.57;;;20.60;26.40;;;;;;5031808;28;20439;-89
2023/05/03 12:35:41;;;;;;;7.90;3.53;;;20.60;28.40;;;;;;5031440;28;20459;-90
2023/05/03 12:38:27;;;;;;;4.60;2.70;;;20.60;26.90;;;;;;5038404;28;20564;-90
2023/05/03 12:41:14;;;;;;;10.73;3.03;;;20.70;27.80;;;;;;5032767;28;20461;-90
2023/05/03 12:44:00;;;;;;;5.33;3.03;;;20.80;27.70;;;;;;5042799;28;20474;-89
2023/05/03 12:46:46;;;;;;;5.70;2.87;;;20.80;27.10;;;;;;5046360;28;20529;-88
2023/05/03 12:49:32;;;;;;;7.17;3.27;;;20.90;27.10;;;;;;5036831;28;20477;-89
2023/05/03 12:52:20;;;;;;;5.10;2.90;;;20.90;26.70;;;;;;5037934;28;20442;-90
2023/05/03 12:55:07;;;;;;;5.23;3.33;;;21.10;26.50;;;;;;5052347;28;20489;-89
2023/05/03 12:57:52;;;;;;;3.80;2.70;;;21.20;26.50;;;;;;5028239;28;20475;-89
2023/05/03 13:00:38;;;;;;;9.00;3.40;;;21.30;27.50;;;;;;5039132;28;20439;-90
2023/05/03 13:03:23;;;;;;;4.63;3.40;;;21.30;27.50;;;;;;5033888;28;20611;-90
2023/05/03 13:06:09;;;;;;;6.67;3.60;;;21.20;25.10;;;;;;5039910;28;20960;-90
2023/05/03 13:08:56;;;;;;;4.87;3.33;;;21.50;26.20;;;;;;5034522;28;21071;-90
2023/05/03 13:11:45;;;;;;;5.23;3.40;;;21.60;25.10;;;;;;5041415;28;20446;-90
2023/05/03 13:14:30;;;;;;;7.90;3.10;;;21.80;24.00;;;;;;5034263;28;20440;-89
2023/05/03 13:17:19;;;;;;;4.97;2.70;;;21.80;25.20;;;;;;5042735;28;20444;-90
2023/05/03 13:20:07;;;;;;;7.23;3.00;;;21.90;26.90;;;;;;5037136;28;20471;-90
2023/05/03 13:22:52;;;;;;;10.03;3.07;;;22.10;25.50;;;;;;5028145;28;20459;-89
2023/05/03 13:25:39;;;;;;;7.50;3.40;;;22.20;24.40;;;;;;5033738;28;20455;-89
2023/05/03 13:28:26;;;;;;;8.30;3.20;;;22.10;24.10;;;;;;5023608;28;20608;-90
2023/05/03 13:31:11;;;;;;;4.90;2.87;;;22.20;22.80;;;;;;5027051;28;20524;-90
2023/05/03 13:33:56;;;;;;;4.70;2.83;;;22.20;23.20;;;;;;5034780;28;20824;-90
2023/05/03 13:36:42;;;;;;;7.30;2.90;;;22.30;22.90;;;;;;5031303;28;20456;-89
2023/05/03 13:39:27;;;;;;;5.00;2.90;;;22.30;21.20;;;;;;5021924;28;20460;-90
2023/05/03 13:42:15;;;;;;;9.17;3.07;;;22.30;22.10;;;;;;5026860;28;20521;-89
2023/05/03 13:45:01;;;;;;;3.83;2.77;;;22.40;22.50;;;;;;5043142;28;20502;-89
2023/05/03 13:47:46;;;;;;;8.70;2.70;;;22.50;22.20;;;;;;5030689;28;20477;-89
2023/05/03 13:50:31;;;;;;;7.13;2.73;;;22.40;21.40;;;;;;5028474;28;20448;-90
2023/05/03 13:53:17;;;;;;;4.70;2.60;;;22.30;21.20;;;;;;5040673;28;20815;-89
2023/05/03 13:56:03;;;;;;;4.50;2.40;;;22.40;23.30;;;;;;5028302;28;20499;-89
2023/05/03 13:58:51;;;;;;;6.63;3.20;;;22.60;21.30;;;;;;5027185;28;20848;-89
2023/05/03 14:01:37;;;;;;;7.90;2.93;;;22.60;22.60;;;;;;5033304;28;20509;-89
2023/05/03 14:04:24;;;;;;;5.20;2.30;;;22.80;21.80;;;;;;5025590;28;20475;-89
2023/05/03 14:07:10;;;;;;;4.20;3.07;;;22.90;20.70;;;;;;5041257;28;20493;-90
2023/05/03 14:09:56;;;;;;;6.40;2.80;;;23.00;18.60;;;;;;5039681;28;20458;-89
2023/05/03 14:12:43;;;;;;;4.60;2.40;;;23.00;21.20;;;;;;5025999;28;20578;-89
2023/05/03 14:15:29;;;;;;;3.67;2.40;;;23.00;18.10;;;;;;5030439;28;20448;-91
2023/05/03 14:18:15;;;;;;;3.23;1.80;;;23.00;18.10;;;;;;5034981;28;20465;-91
2023/05/03 14:21:00;;;;;;;4.17;2.60;;;22.90;18.20;;;;;;5038626;28;21006;-91
2023/05/03 14:23:47;;;;;;;4.57;2.70;;;22.80;17.50;;;;;;5038707;28;20483;-91
2023/05/03 14:26:33;;;;;;;5.07;2.00;;;22.80;19.00;;;;;;5034921;28;20816;-91